Time;durP1;ratioP1;P1;durP2;ratioP2;P2;SDS_P1;SDS_P2;PMS_P1;PMS_P2;Temp;Humidity;BMP_temperature;BMP_pressure;BME280_temperature;BME280_humidity;BME280_pressure;Samples;Min_cycle;Max_cycle;Signal;HPM_P1;HPM_P2
2023/05/07 00:00:24;;;;;;;13.10;6.40;;;;;;;20.07;22.50;101004.83;107482;1263;60358;-66
2023/05/07 00:02:51;;;;;;;17.00;6.70;;;;;;;20.01;22.61;101003.39;108043;1253;62129;-66
2023/05/07 00:05:18;;;;;;;14.00;6.20;;;;;;;20.01;22.38;101005.17;108096;1253;73640;-67
2023/05/07 00:07:46;;;;;;;14.50;5.60;;;;;;;20.02;22.39;101002.63;108074;1253;71667;-66
2023/05/07 00:10:13;;;;;;;11.80;6.20;;;;;;;20.28;22.23;100996.73;108128;1253;75001;-64
2023/05/07 00:12:40;;;;;;;17.40;5.70;;;;;;;20.24;22.09;100995.38;108084;1253;61287;-65
2023/05/07 00:15:08;;;;;;;13.70;6.30;;;;;;;20.23;22.07;100993.84;108092;1253;60253;-64
2023/05/07 00:17:35;;;;;;;16.60;6.10;;;;;;;20.18;22.04;100993.45;108123;1253;71396;-66
2023/05/07 00:20:03;;;;;;;14.50;6.60;;;;;;;20.12;22.13;100990.42;108133;1253;72368;-65
2023/05/07 00:22:32;;;;;;;13.70;6.20;;;;;;;19.94;22.24;100993.49;108112;1253;74564;-65
2023/05/07 00:24:59;;;;;;;16.40;6.60;;;;;;;20.17;21.94;100995.09;108176;1252;59568;-65
2023/05/07 00:27:25;;;;;;;13.50;6.20;;;;;;;20.09;22.09;100994.34;108075;1257;61253;-64
2023/05/07 00:29:52;;;;;;;14.00;7.10;;;;;;;20.46;21.57;100987.89;108161;1252;74923;-67
2023/05/07 00:32:19;;;;;;;12.50;6.40;;;;;;;20.51;21.40;100986.81;108162;1253;71388;-65
2023/05/07 00:34:46;;;;;;;17.20;6.50;;;;;;;20.18;21.60;100985.55;107981;1256;73469;-65
2023/05/07 00:37:13;;;;;;;19.30;6.10;;;;;;;20.33;21.40;100984.25;108121;1254;60378;-65
2023/05/07 00:39:40;;;;;;;9.80;4.90;;;;;;;20.54;21.20;100985.08;108157;1253;62381;-66
2023/05/07 00:42:07;;;;;;;18.80;5.90;;;;;;;20.63;21.13;100987.19;108169;1253;73744;-67
2023/05/07 00:44:34;;;;;;;12.60;6.00;;;;;;;20.44;21.16;100984.41;108103;1253;71279;-66
2023/05/07 00:47:02;;;;;;;14.80;6.10;;;;;;;20.66;21.05;100982.45;108112;1253;72641;-67
2023/05/07 00:49:40;;;;;;;12.30;5.20;;;;;;;20.42;21.09;100982.61;108166;1253;60369;-65
2023/05/07 00:52:09;;;;;;;11.20;5.80;;;;;;;20.29;21.01;100981.30;108143;1253;61308;-66
2023/05/07 00:54:36;;;;;;;12.60;5.60;;;;;;;20.49;21.19;100981.98;108107;1252;74912;-66
2023/05/07 00:57:03;;;;;;;15.50;5.90;;;;;;;20.56;21.10;100984.76;108010;1254;72228;-65
2023/05/07 00:59:31;;;;;;;12.60;5.80;;;;;;;20.45;20.95;100980.24;108048;1254;72446;-65
2023/05/07 01:01:59;;;;;;;13.80;5.60;;;;;;;20.03;21.24;100988.52;108071;1253;60358;-67
2023/05/07 01:04:26;;;;;;;11.40;5.60;;;;;;;20.44;21.04;100992.81;108080;1253;62468;-66
2023/05/07 01:06:56;;;;;;;12.00;5.40;;;;;;;20.47;20.95;100993.71;108094;1253;73469;-66
2023/05/07 01:09:26;;;;;;;10.30;4.90;;;;;;;20.49;20.97;100996.83;108057;1253;71378;-68
2023/05/07 01:11:53;;;;;;;15.00;4.90;;;;;;;20.61;20.87;101000.66;108004;1254;71814;-66
2023/05/07 01:14:20;;;;;;;13.10;5.60;;;;;;;20.56;21.02;101000.97;108006;1254;59662;-66
2023/05/07 01:16:48;;;;;;;11.40;4.30;;;;;;;20.74;20.55;101005.13;108104;1253;60095;-66
2023/05/07 01:19:17;;;;;;;10.80;5.30;;;;;;;20.91;20.54;101012.60;108028;1254;74016;-66
2023/05/07 01:21:45;;;;;;;10.90;4.50;;;;;;;21.17;20.38;101015.36;107868;1254;70160;-66
2023/05/07 01:24:12;;;;;;;17.10;5.80;;;;;;;20.99;20.61;101016.20;107675;1261;72968;-67
2023/05/07 01:26:39;;;;;;;12.30;5.20;;;;;;;20.96;20.69;101013.52;107942;1255;59802;-66
2023/05/07 01:29:06;;;;;;;11.00;5.30;;;;;;;21.05;20.59;101014.88;107896;1253;62185;-66
2023/05/07 01:31:34;;;;;;;12.70;5.20;;;;;;;21.06;20.74;101009.81;107862;1254;73904;-66
2023/05/07 01:34:02;;;;;;;13.20;4.30;;;;;;;21.16;20.71;101014.36;108065;1254;70503;-66
2023/05/07 01:36:30;;;;;;;9.00;4.00;;;;;;;20.81;20.71;101013.08;107935;1256;72729;-67
2023/05/07 01:38:57;;;;;;;13.90;3.80;;;;;;;20.62;20.86;101016.68;107719;1261;61375;-65
2023/05/07 01:41:24;;;;;;;6.30;3.30;;;;;;;20.48;20.86;101019.86;107994;1254;62351;-65
2023/05/07 01:43:52;;;;;;;8.40;3.80;;;;;;;20.44;20.78;101019.95;108048;1254;75093;-66
2023/05/07 01:46:18;;;;;;;6.20;3.50;;;;;;;20.55;20.89;101022.85;108034;1254;71019;-64
2023/05/07 01:48:45;;;;;;;13.40;4.40;;;;;;;20.46;20.77;101016.80;107746;1255;74864;-67
2023/05/07 01:51:12;;;;;;;7.10;3.70;;;;;;;20.25;20.95;101019.34;107950;1254;60235;-67
2023/05/07 01:53:40;;;;;;;11.40;4.00;;;;;;;20.28;21.06;101019.50;108023;1254;59395;-66
2023/05/07 01:56:07;;;;;;;8.20;3.70;;;;;;;20.47;20.93;101021.02;107962;1255;75180;-66
2023/05/07 01:58:35;;;;;;;6.20;3.30;;;;;;;20.48;20.98;101021.27;107745;1254;72702;-66
2023/05/07 02:01:02;;;;;;;9.90;3.60;;;;;;;20.57;20.74;101024.13;107945;1254;71297;-66
2023/05/07 02:03:30;;;;;;;6.50;3.40;;;;;;;20.50;20.63;101027.94;107946;1260;61121;-66
2023/05/07 02:06:01;;;;;;;6.20;3.50;;;;;;;20.67;20.67;101026.84;107937;1254;62317;-65
2023/05/07 02:08:34;;;;;;;9.30;4.30;;;;;;;20.50;20.62;101022.59;107959;1256;74079;-66
2023/05/07 02:11:01;;;;;;;11.60;3.70;;;;;;;20.68;20.77;101030.87;107944;1254;70285;-66
2023/05/07 02:13:31;;;;;;;7.30;3.90;;;;;;;20.54;20.97;101028.80;107995;1256;73625;-67
2023/05/07 02:15:58;;;;;;;8.40;3.60;;;;;;;19.54;21.65;101036.91;107980;1256;59520;-65
2023/05/07 02:18:26;;;;;;;9.10;3.70;;;;;;;19.24;22.03;101042.56;107994;1256;62944;-66
2023/05/07 02:20:53;;;;;;;9.70;3.70;;;;;;;20.09;21.29;101039.23;108075;1254;72383;-67
2023/05/07 02:23:20;;;;;;;8.70;4.00;;;;;;;20.54;21.08;101038.55;107996;1254;70874;-64
2023/05/07 02:25:47;;;;;;;13.30;4.40;;;;;;;20.73;20.95;101041.29;108069;1254;74651;-65
2023/05/07 02:28:15;;;;;;;19.20;4.30;;;;;;;20.68;21.03;101043.57;107991;1254;60703;-65
2023/05/07 02:30:54;;;;;;;8.80;4.00;;;;;;;20.69;21.08;101043.35;107826;1254;62006;-65
2023/05/07 02:33:21;;;;;;;7.20;3.90;;;;;;;20.66;21.07;101041.36;108004;1254;73253;-66
2023/05/07 02:35:48;;;;;;;8.00;3.60;;;;;;;20.85;20.86;101041.08;108082;1254;68866;-65
2023/05/07 02:38:15;;;;;;;7.60;3.90;;;;;;;20.93;20.88;101039.98;107949;1255;75116;-67
2023/05/07 02:40:42;;;;;;;13.70;3.90;;;;;;;20.86;20.92;101043.64;107944;1254;61508;-66
2023/05/07 02:43:09;;;;;;;12.80;4.00;;;;;;;20.79;21.07;101049.13;108017;1254;61352;-67
2023/05/07 02:45:37;;;;;;;10.30;4.40;;;;;;;20.87;21.22;101053.09;107858;1254;75369;-66
2023/05/07 02:48:06;;;;;;;10.40;4.20;;;;;;;20.91;21.15;101059.94;108046;1254;72433;-66
2023/05/07 02:50:33;;;;;;;8.70;4.30;;;;;;;21.07;21.30;101061.56;107988;1254;75020;-65
2023/05/07 02:52:59;;;;;;;8.00;3.60;;;;;;;21.13;21.13;101063.45;108055;1253;59823;-66
2023/05/07 02:55:27;;;;;;;8.10;4.20;;;;;;;21.09;21.00;101066.05;107979;1254;60223;-66
2023/05/07 02:57:53;;;;;;;9.50;4.30;;;;;;;20.78;21.29;101062.02;108031;1254;75394;-66
2023/05/07 03:00:21;;;;;;;10.00;4.10;;;;;;;20.67;21.39;101063.10;108080;1253;69171;-66
2023/05/07 03:02:59;;;;;;;10.90;5.10;;;;;;;20.75;21.45;101058.46;108143;1253;74809;-67
2023/05/07 03:05:26;;;;;;;14.10;5.10;;;;;;;20.87;21.46;101062.86;107987;1253;60224;-67
2023/05/07 03:07:53;;;;;;;10.10;4.40;;;;;;;21.08;21.24;101062.39;108117;1253;61471;-65
2023/05/07 03:10:20;;;;;;;10.40;4.70;;;;;;;20.78;21.41;101063.45;107987;1253;75218;-67
2023/05/07 03:12:47;;;;;;;9.70;5.20;;;;;;;20.76;21.34;101066.21;108091;1253;68304;-65
2023/05/07 03:15:15;;;;;;;12.10;5.50;;;;;;;20.29;21.73;101069.04;108132;1256;73732;-66
2023/05/07 03:17:41;;;;;;;8.00;4.00;;;;;;;20.45;21.63;101075.52;108157;1253;59539;-66
2023/05/07 03:20:09;;;;;;;11.80;4.20;;;;;;;20.59;21.27;101074.25;108035;1253;59691;-63
2023/05/07 03:22:37;;;;;;;7.70;3.90;;;;;;;20.63;21.28;101078.12;108095;1253;74827;-66
2023/05/07 03:25:05;;;;;;;9.20;3.80;;;;;;;20.76;20.95;101073.56;108114;1253;70524;-66
2023/05/07 03:27:32;;;;;;;9.40;4.40;;;;;;;20.84;20.99;101073.75;108094;1253;74938;-63
2023/05/07 03:29:59;;;;;;;6.90;3.90;;;;;;;20.92;20.98;101075.91;108192;1254;61376;-64
2023/05/07 03:32:26;;;;;;;8.50;3.80;;;;;;;20.84;20.88;101075.89;108093;1253;62084;-64
2023/05/07 03:34:53;;;;;;;8.10;3.90;;;;;;;20.55;21.17;101079.02;108045;1253;75677;-65
2023/05/07 03:37:21;;;;;;;8.20;4.20;;;;;;;20.60;21.18;101082.46;108044;1253;70772;-64
2023/05/07 03:39:48;;;;;;;11.80;4.20;;;;;;;20.89;20.98;101089.71;108131;1253;74125;-67
2023/05/07 03:42:15;;;;;;;8.30;3.80;;;;;;;21.06;21.01;101098.40;108106;1253;60485;-66
2023/05/07 03:44:42;;;;;;;10.50;4.30;;;;;;;20.93;20.80;101097.48;107955;1253;62116;-65
2023/05/07 03:47:10;;;;;;;9.20;4.20;;;;;;;20.95;20.90;101098.55;108026;1253;73780;-67
2023/05/07 03:49:37;;;;;;;6.60;3.80;;;;;;;20.94;21.00;101097.90;108104;1253;72692;-65
2023/05/07 03:52:05;;;;;;;12.60;4.20;;;;;;;20.98;20.96;101097.67;108052;1253;74914;-65
2023/05/07 03:54:32;;;;;;;9.80;4.30;;;;;;;21.06;21.03;101100.88;107950;1253;61709;-66
2023/05/07 03:56:59;;;;;;;9.20;4.10;;;;;;;21.12;20.82;101102.11;108038;1253;62688;-67
2023/05/07 03:59:26;;;;;;;11.00;3.90;;;;;;;21.21;20.90;101103.46;108047;1253;76317;-66
2023/05/07 04:01:53;;;;;;;7.90;4.10;;;;;;;21.41;20.59;101106.82;107971;1253;72201;-66
2023/05/07 04:04:21;;;;;;;8.80;3.70;;;;;;;21.49;20.48;101105.40;107951;1254;72333;-65
2023/05/07 04:06:48;;;;;;;11.00;4.40;;;;;;;21.71;20.52;101108.41;108151;1253;61960;-67
2023/05/07 04:09:15;;;;;;;11.90;3.70;;;;;;;21.67;20.58;101109.38;107939;1253;60262;-66
2023/05/07 04:11:43;;;;;;;12.60;3.90;;;;;;;21.75;20.62;101108.48;108213;1253;74586;-65
2023/05/07 04:14:10;;;;;;;8.50;3.60;;;;;;;21.70;20.63;101109.38;108017;1253;72141;-66
2023/05/07 04:16:38;;;;;;;8.10;3.90;;;;;;;21.37;20.76;101115.09;108037;1253;72662;-65
2023/05/07 04:19:05;;;;;;;7.90;3.90;;;;;;;21.48;20.86;101110.68;108160;1253;60544;-66
2023/05/07 04:21:32;;;;;;;7.40;3.60;;;;;;;21.31;20.84;101107.99;108113;1253;61124;-67
2023/05/07 04:23:59;;;;;;;9.60;3.80;;;;;;;21.07;21.07;101109.36;108102;1253;75728;-65
2023/05/07 04:26:28;;;;;;;9.50;4.00;;;;;;;21.07;21.11;101111.33;108109;1253;71525;-66
2023/05/07 04:28:55;;;;;;;6.70;3.50;;;;;;;21.14;21.06;101103.03;108024;1253;74607;-67
2023/05/07 04:31:22;;;;;;;10.20;3.90;;;;;;;21.25;21.04;101101.48;107951;1253;62042;-67
2023/05/07 04:33:51;;;;;;;12.40;4.20;;;;;;;21.17;21.20;101101.27;108093;1253;60600;-66
2023/05/07 04:36:18;;;;;;;11.90;3.90;;;;;;;21.32;21.20;101098.43;108023;1253;76252;-67
2023/05/07 04:38:50;;;;;;;7.50;3.80;;;;;;;21.32;21.07;101097.43;108041;1253;72480;-66
2023/05/07 04:41:17;;;;;;;13.10;4.20;;;;;;;21.44;20.94;101096.42;108131;1258;74900;-67
2023/05/07 04:43:44;;;;;;;9.60;4.10;;;;;;;21.28;21.05;101106.75;108048;1253;61664;-68
2023/05/07 04:46:11;;;;;;;9.00;4.50;;;;;;;21.22;21.29;101103.23;108105;1253;62916;-68
2023/05/07 04:48:39;;;;;;;10.50;4.10;;;;;;;21.20;21.41;101103.16;108159;1253;74817;-68
2023/05/07 04:51:06;;;;;;;8.90;4.30;;;;;;;21.29;21.55;101100.63;108084;1253;71633;-66
2023/05/07 04:53:33;;;;;;;9.20;4.50;;;;;;;21.31;21.40;101099.09;107960;1253;74538;-65
2023/05/07 04:56:00;;;;;;;9.50;4.20;;;;;;;21.12;21.64;101096.90;107935;1259;60267;-64
2023/05/07 04:58:32;;;;;;;8.10;4.30;;;;;;;21.43;21.61;101096.32;107929;1254;62642;-67
2023/05/07 05:00:59;;;;;;;7.50;4.30;;;;;;;21.24;21.54;101097.91;107730;1254;74466;-67
2023/05/07 05:03:26;;;;;;;9.10;4.30;;;;;;;21.33;21.54;101097.88;107978;1260;70867;-67
2023/05/07 05:05:53;;;;;;;7.80;3.80;;;;;;;21.60;21.51;101096.64;107953;1256;74701;-66
2023/05/07 05:08:20;;;;;;;9.00;4.30;;;;;;;21.47;21.59;101090.15;107952;1254;61509;-62
2023/05/07 05:10:49;;;;;;;12.10;5.00;;;;;;;21.61;21.56;101082.23;107975;1254;61030;-65
2023/05/07 05:13:17;;;;;;;7.80;4.00;;;;;;;21.66;21.50;101082.85;108108;1254;75851;-64
2023/05/07 05:15:45;;;;;;;13.10;4.50;;;;;;;21.80;21.64;101085.05;107953;1254;71757;-67
2023/05/07 05:18:12;;;;;;;10.20;4.60;;;;;;;21.98;21.38;101084.35;107980;1254;74014;-66
2023/05/07 05:20:39;;;;;;;8.20;4.30;;;;;;;21.96;21.48;101081.07;107941;1254;60692;-67
2023/05/07 05:23:07;;;;;;;8.60;4.10;;;;;;;21.99;21.51;101079.11;107963;1254;61159;-67
2023/05/07 05:25:34;;;;;;;7.60;3.70;;;;;;;22.31;21.30;101079.20;108001;1254;74805;-66
2023/05/07 05:28:01;;;;;;;10.60;4.30;;;;;;;22.52;21.01;101080.04;108035;1255;72841;-67
2023/05/07 05:30:29;;;;;;;8.50;4.30;;;;;;;22.24;21.46;101080.24;107966;1256;74099;-67
2023/05/07 05:32:56;;;;;;;9.00;4.30;;;;;;;22.60;20.82;101080.66;108033;1255;60412;-67
2023/05/07 05:35:25;;;;;;;8.80;4.20;;;;;;;22.74;20.92;101076.45;108026;1255;59874;-67
2023/05/07 05:37:52;;;;;;;7.90;3.70;;;;;;;22.67;21.17;101073.94;108016;1254;75247;-68
2023/05/07 05:40:19;;;;;;;9.90;4.30;;;;;;;22.82;20.68;101067.08;107938;1254;69925;-67
2023/05/07 05:42:46;;;;;;;7.60;4.10;;;;;;;23.08;20.39;101065.89;108000;1256;73837;-65
2023/05/07 05:45:15;;;;;;;8.50;4.10;;;;;;;23.25;20.25;101066.96;108067;1255;60792;-68
2023/05/07 05:47:44;;;;;;;10.60;4.40;;;;;;;23.27;20.39;101073.30;108047;1255;62458;-67
2023/05/07 05:50:11;;;;;;;9.00;4.40;;;;;;;23.36;20.28;101074.53;108149;1256;76191;-66
2023/05/07 05:52:40;;;;;;;7.50;4.30;;;;;;;23.18;20.23;101072.70;108062;1256;72421;-67
2023/05/07 05:55:08;;;;;;;7.10;3.90;;;;;;;23.42;19.91;101072.70;107980;1254;74616;-67
2023/05/07 05:57:35;;;;;;;8.90;4.20;;;;;;;23.46;19.97;101071.30;108041;1253;61201;-67
2023/05/07 06:00:03;;;;;;;9.30;3.90;;;;;;;23.68;19.90;101071.77;108091;1253;61365;-68
2023/05/07 06:02:31;;;;;;;11.00;4.30;;;;;;;24.29;19.51;101070.60;107914;1253;76023;-67
2023/05/07 06:04:58;;;;;;;9.00;4.00;;;;;;;24.14;19.16;101067.61;107960;1260;69571;-67
2023/05/07 06:07:25;;;;;;;7.30;3.70;;;;;;;24.27;19.08;101063.02;108037;1254;75075;-67
2023/05/07 06:09:52;;;;;;;9.60;4.50;;;;;;;24.53;19.20;101061.86;107934;1253;60343;-67
2023/05/07 06:12:19;;;;;;;8.30;4.00;;;;;;;24.25;18.99;101061.21;108113;1253;60569;-67
2023/05/07 06:14:47;;;;;;;8.10;3.70;;;;;;;24.03;18.87;101065.88;108085;1253;73369;-66
2023/05/07 06:17:15;;;;;;;8.90;3.90;;;;;;;24.15;18.85;101063.05;108094;1259;70529;-67
2023/05/07 06:19:43;;;;;;;8.80;3.00;;;;;;;24.03;18.71;101070.45;108003;1255;74296;-68
2023/05/07 06:22:10;;;;;;;10.60;6.10;;;;;;;24.03;18.93;101062.40;107922;1256;60233;-68
2023/05/07 06:24:37;;;;;;;11.20;4.00;;;;;;;24.31;18.74;101065.25;107911;1254;61170;-66
2023/05/07 06:27:04;;;;;;;7.50;3.10;;;;;;;24.48;18.23;101067.45;107936;1255;75516;-67
2023/05/07 06:29:33;;;;;;;9.60;3.70;;;;;;;24.33;18.79;101067.95;107962;1254;71239;-67
2023/05/07 06:32:08;;;;;;;4.50;3.40;;;;;;;24.10;18.70;101074.29;107849;1256;74154;-67
2023/05/07 06:34:35;;;;;;;6.20;3.20;;;;;;;24.54;18.44;101072.59;107865;1256;60472;-68
2023/05/07 06:37:02;;;;;;;6.10;3.80;;;;;;;24.67;18.30;101074.70;107967;1254;61344;-66
2023/05/07 06:39:44;;;;;;;12.30;3.40;;;;;;;25.12;18.08;101078.41;108002;1254;75820;-68
2023/05/07 06:42:12;;;;;;;6.50;3.30;;;;;;;25.10;17.96;101081.64;107880;1256;70375;-67
2023/05/07 06:44:40;;;;;;;7.50;3.10;;;;;;;25.03;17.79;101082.20;107936;1255;74898;-65
2023/05/07 06:47:10;;;;;;;5.40;3.50;;;;;;;24.62;18.00;101083.55;108006;1254;60558;-68
2023/05/07 06:49:38;;;;;;;9.10;3.80;;;;;;;24.48;18.08;101084.69;107963;1256;62680;-66
2023/05/07 06:52:05;;;;;;;5.40;3.00;;;;;;;24.59;17.91;101089.18;107927;1254;73776;-65
2023/05/07 06:54:32;;;;;;;8.60;3.70;;;;;;;24.58;18.14;101088.79;108005;1255;71070;-67
2023/05/07 06:57:00;;;;;;;9.00;3.40;;;;;;;24.61;17.89;101087.59;107943;1256;72672;-67
2023/05/07 06:59:27;;;;;;;7.30;3.60;;;;;;;24.81;17.55;101083.44;107934;1256;62646;-65
2023/05/07 07:01:54;;;;;;;9.50;3.30;;;;;;;24.98;17.29;101087.99;107952;1256;60544;-68
2023/05/07 07:04:23;;;;;;;9.60;2.80;;;;;;;24.63;17.17;101085.11;108088;1255;73703;-67
2023/05/07 07:06:57;;;;;;;6.70;3.30;;;;;;;24.85;17.31;101080.98;108057;1256;72181;-68
2023/05/07 07:09:24;;;;;;;7.00;2.60;;;;;;;24.50;17.32;101079.14;107913;1255;71189;-67
2023/05/07 07:11:52;;;;;;;7.10;3.10;;;;;;;24.72;16.88;101081.70;107949;1255;61600;-68
2023/05/07 07:14:20;;;;;;;7.60;3.20;;;;;;;25.09;16.79;101084.59;108003;1256;60376;-68
2023/05/07 07:16:49;;;;;;;8.00;3.00;;;;;;;24.77;16.96;101081.50;107982;1254;75717;-68
2023/05/07 07:19:16;;;;;;;6.30;2.40;;;;;;;25.15;17.04;101078.52;108066;1253;70064;-67
2023/05/07 07:21:44;;;;;;;6.40;3.20;;;;;;;25.58;16.55;101074.73;108102;1253;74952;-68
2023/05/07 07:24:13;;;;;;;7.60;2.70;;;;;;;25.44;16.20;101084.02;108012;1254;62581;-69
2023/05/07 07:26:40;;;;;;;6.90;2.90;;;;;;;25.33;16.25;101082.77;107973;1253;61940;-68
2023/05/07 07:29:07;;;;;;;4.30;2.20;;;;;;;24.83;16.15;101082.58;107892;1253;76212;-66
2023/05/07 07:31:34;;;;;;;3.10;2.10;;;;;;;24.42;15.86;101081.38;107954;1253;69640;-66
2023/05/07 07:34:01;;;;;;;5.30;2.20;;;;;;;24.57;16.05;101075.04;108113;1257;74713;-67
2023/05/07 07:36:28;;;;;;;3.50;2.00;;;;;;;24.46;15.99;101079.52;107909;1260;60372;-67
2023/05/07 07:39:12;;;;;;;5.90;2.20;;;;;;;23.98;16.12;101076.90;108166;1253;61737;-68
2023/05/07 07:41:40;;;;;;;4.20;2.10;;;;;;;23.34;16.76;101077.94;108082;1254;73958;-68
2023/05/07 07:44:07;;;;;;;7.50;3.30;;;;;;;23.55;16.52;101078.30;108049;1253;72633;-67
2023/05/07 07:46:35;;;;;;;5.70;2.60;;;;;;;24.32;16.10;101077.73;108225;1253;74846;-67
2023/05/07 07:49:02;;;;;;;12.00;2.90;;;;;;;24.90;15.68;101069.58;108155;1253;60710;-65
2023/05/07 07:51:30;;;;;;;5.60;2.60;;;;;;;25.47;15.55;101070.51;108086;1251;61091;-68
2023/05/07 07:53:57;;;;;;;6.90;2.60;;;;;;;25.38;15.46;101076.80;108176;1253;76092;-67
2023/05/07 07:56:25;;;;;;;4.10;2.10;;;;;;;24.90;15.47;101076.95;108008;1253;70404;-68
2023/05/07 07:58:51;;;;;;;7.40;2.10;;;;;;;25.24;15.09;101073.15;108009;1253;74373;-68
2023/05/07 08:01:18;;;;;;;5.10;2.30;;;;;;;24.41;15.59;101074.65;107941;1253;61024;-67
2023/05/07 08:03:45;;;;;;;10.30;2.90;;;;;;;24.63;15.49;101080.05;108020;1253;61260;-67
2023/05/07 08:06:13;;;;;;;4.30;2.10;;;;;;;24.79;15.43;101075.39;107981;1258;72731;-68
2023/05/07 08:08:41;;;;;;;5.50;2.40;;;;;;;24.88;15.21;101071.92;107961;1258;72188;-68
2023/05/07 08:11:08;;;;;;;5.80;2.80;;;;;;;24.99;15.29;101073.75;107942;1256;74661;-68
2023/05/07 08:13:36;;;;;;;4.50;2.20;;;;;;;24.95;15.48;101074.28;107952;1253;60937;-68
2023/05/07 08:16:04;;;;;;;8.10;2.60;;;;;;;24.94;15.28;101079.90;107837;1257;61846;-68
2023/05/07 08:18:31;;;;;;;5.70;2.60;;;;;;;24.99;15.41;101080.19;108083;1253;73710;-68
2023/05/07 08:21:00;;;;;;;5.50;2.10;;;;;;;25.09;15.27;101077.01;108044;1253;72463;-67
2023/05/07 08:23:28;;;;;;;4.20;2.30;;;;;;;24.94;15.43;101073.08;107990;1253;72712;-65
2023/05/07 08:25:57;;;;;;;3.50;1.90;;;;;;;24.99;15.60;101074.07;107947;1254;60423;-68
2023/05/07 08:28:24;;;;;;;9.50;2.30;;;;;;;24.78;15.55;101071.88;107999;1253;62401;-67
2023/05/07 08:30:52;;;;;;;4.90;2.00;;;;;;;25.09;15.54;101070.91;108025;1253;75655;-68
2023/05/07 08:33:19;;;;;;;3.40;2.10;;;;;;;25.24;15.30;101067.56;107915;1253;71597;-68
2023/05/07 08:35:45;;;;;;;3.20;2.00;;;;;;;25.14;15.36;101068.02;108024;1253;73379;-67
2023/05/07 08:38:13;;;;;;;10.20;2.10;;;;;;;25.01;15.18;101066.34;108109;1255;62030;-67
2023/05/07 08:40:40;;;;;;;3.30;1.80;;;;;;;24.84;15.08;101065.83;107961;1253;60878;-68
2023/05/07 08:43:12;;;;;;;3.30;2.00;;;;;;;25.03;15.23;101060.86;107990;1253;75191;-68
2023/05/07 08:45:39;;;;;;;5.20;2.80;;;;;;;25.43;15.17;101054.99;108065;1253;71613;-67
2023/05/07 08:48:15;;;;;;;5.20;2.40;;;;;;;25.73;14.73;101056.01;108053;1256;70982;-68
2023/05/07 08:50:43;;;;;;;6.40;2.50;;;;;;;26.36;14.35;101060.78;108120;1253;60402;-68
2023/05/07 08:53:10;;;;;;;4.70;2.10;;;;;;;26.30;13.98;101059.19;108029;1253;62369;-68
2023/05/07 08:55:37;;;;;;;3.90;2.10;;;;;;;26.02;14.17;101058.78;108027;1252;75491;-68
2023/05/07 08:58:04;;;;;;;5.80;1.90;;;;;;;26.01;14.54;101063.35;108141;1254;71783;-67
2023/05/07 09:00:31;;;;;;;7.00;2.00;;;;;;;26.40;14.01;101066.91;108213;1254;72567;-69
2023/05/07 09:02:58;;;;;;;2.90;2.00;;;;;;;26.13;13.95;101071.27;108100;1254;59849;-67
2023/05/07 09:05:25;;;;;;;6.80;2.00;;;;;;;26.17;14.20;101066.81;108124;1258;60934;-67
2023/05/07 09:07:52;;;;;;;3.00;2.10;;;;;;;26.08;13.92;101065.08;108282;1254;73679;-66
2023/05/07 09:10:21;;;;;;;7.60;2.30;;;;;;;26.24;14.09;101063.66;108049;1253;72801;-67
2023/05/07 09:12:48;;;;;;;9.30;2.00;;;;;;;26.42;13.96;101067.07;108261;1253;74415;-66
2023/05/07 09:15:16;;;;;;;6.00;2.00;;;;;;;26.46;13.93;101071.25;108155;1254;62730;-66
2023/05/07 09:17:43;;;;;;;7.60;2.20;;;;;;;26.11;13.94;101070.74;108112;1253;61120;-64
2023/05/07 09:20:10;;;;;;;6.10;1.90;;;;;;;25.83;14.16;101067.77;108249;1254;75639;-68
2023/05/07 09:22:38;;;;;;;9.60;1.90;;;;;;;26.15;14.18;101065.50;108256;1254;72767;-66
2023/05/07 09:25:09;;;;;;;9.70;2.30;;;;;;;26.22;13.97;101069.20;108119;1254;72600;-67
2023/05/07 09:27:37;;;;;;;6.40;2.60;;;;;;;25.43;14.30;101070.44;108067;1255;61313;-66
2023/05/07 09:30:07;;;;;;;5.60;2.50;;;;;;;25.56;14.12;101076.68;108175;1254;60616;-68
2023/05/07 09:32:37;;;;;;;3.50;1.90;;;;;;;25.49;14.25;101074.10;108126;1254;75277;-67
2023/05/07 09:35:05;;;;;;;7.80;2.10;;;;;;;25.44;14.39;101068.52;108234;1254;71812;-67
2023/05/07 09:37:33;;;;;;;8.70;2.00;;;;;;;25.48;14.37;101075.41;108127;1254;73827;-69
2023/05/07 09:40:00;;;;;;;5.50;2.80;;;;;;;25.71;14.24;101074.71;108296;1252;62428;-67
2023/05/07 09:42:27;;;;;;;4.10;2.40;;;;;;;25.84;14.34;101079.52;108196;1252;62731;-67
2023/05/07 09:44:57;;;;;;;7.60;2.00;;;;;;;25.72;14.10;101073.89;108159;1252;75535;-67
2023/05/07 09:47:26;;;;;;;3.30;1.80;;;;;;;25.75;14.05;101069.83;107989;1253;68692;-67
2023/05/07 09:49:55;;;;;;;3.90;2.20;;;;;;;25.55;14.27;101069.05;108189;1256;72954;-68
2023/05/07 09:52:22;;;;;;;11.70;2.80;;;;;;;25.69;14.18;101067.48;108205;1253;60565;-67
2023/05/07 09:54:52;;;;;;;2.70;1.90;;;;;;;25.81;14.12;101075.13;108066;1254;60508;-67
2023/05/07 09:57:21;;;;;;;5.00;2.30;;;;;;;25.80;13.94;101081.65;107994;1252;74790;-66
2023/05/07 09:59:50;;;;;;;3.00;2.00;;;;;;;25.93;14.04;101083.42;108043;1253;72605;-69
2023/05/07 10:02:18;;;;;;;3.30;1.70;;;;;;;25.78;13.92;101078.83;108172;1252;73801;-66
2023/05/07 10:04:47;;;;;;;2.60;2.00;;;;;;;25.72;13.90;101073.71;107936;1256;62041;-68
2023/05/07 10:07:14;;;;;;;4.90;2.10;;;;;;;25.79;13.87;101070.45;108190;1256;60450;-68
2023/05/07 10:09:43;;;;;;;3.90;2.20;;;;;;;25.74;13.90;101072.83;108070;1253;74147;-68
2023/05/07 10:12:17;;;;;;;4.90;2.10;;;;;;;26.02;13.80;101066.88;108052;1253;72657;-69
2023/05/07 10:14:45;;;;;;;5.80;2.00;;;;;;;26.04;13.79;101065.63;108163;1254;72141;-67
2023/05/07 10:17:12;;;;;;;6.00;2.00;;;;;;;26.34;13.65;101059.02;108242;1253;60437;-69
2023/05/07 10:19:41;;;;;;;5.40;2.50;;;;;;;26.32;13.63;101054.48;107976;1253;61169;-69
2023/05/07 10:22:08;;;;;;;4.70;2.00;;;;;;;26.38;14.11;101047.09;108180;1253;75884;-68
2023/05/07 10:24:39;;;;;;;;;;;;;;;26.29;13.60;101046.34;107936;1253;70943;-68
2023/05/07 10:27:11;;;;;;;3.90;2.10;;;;;;;26.15;13.86;101032.79;108146;1253;74638;-68
2023/05/07 10:29:45;;;;;;;5.90;2.30;;;;;;;26.04;13.95;101038.21;108013;1253;60426;-69
2023/05/07 10:32:40;;;;;;;5.10;1.90;;;;;;;25.87;13.85;101029.95;108119;1253;60517;-67
2023/05/07 10:35:16;;;;;;;7.40;2.10;;;;;;;26.49;13.40;101025.94;108176;1257;75708;-67
2023/05/07 10:37:44;;;;;;;4.60;2.30;;;;;;;26.64;13.34;101021.94;108251;1254;72252;-68
2023/05/07 10:40:12;;;;;;;4.00;2.00;;;;;;;26.69;13.31;101016.96;108038;1256;74593;-68
2023/05/07 10:42:56;;;;;;;8.40;2.70;;;;;;;26.88;13.61;101018.45;107998;1255;62601;-68
2023/05/07 10:45:23;;;;;;;3.60;2.10;;;;;;;26.35;13.48;101027.98;107974;1253;62435;-67
2023/05/07 10:48:16;;;;;;;4.10;2.00;;;;;;;26.49;13.32;101021.32;108050;1256;73666;-69
2023/05/07 10:51:22;;;;;;;4.70;1.90;;;;;;;26.53;13.39;101016.95;108161;1256;73064;-67
2023/05/07 10:54:11;;;;;;;2.50;2.00;;;;;;;26.35;13.74;101013.36;108153;1253;72611;-69
2023/05/07 10:56:47;;;;;;;;;;;;;;;26.90;13.42;101008.74;108065;1253;62310;-65
2023/05/07 10:59:22;;;;;;;5.80;2.70;;;;;;;27.10;13.18;101007.10;108259;1253;62423;-68
2023/05/07 11:01:55;;;;;;;3.70;2.30;;;;;;;26.97;13.22;101008.83;108055;1253;73085;-69
2023/05/07 11:04:34;;;;;;;5.40;2.10;;;;;;;26.78;13.21;101015.30;108158;1253;71747;-67
2023/05/07 11:07:24;;;;;;;2.30;2.00;;;;;;;26.72;13.17;101019.52;108090;1252;72638;-68
2023/05/07 11:09:53;;;;;;;4.80;2.20;;;;;;;26.45;13.63;101014.09;107901;1255;63154;-70
2023/05/07 11:12:38;;;;;;;3.80;2.30;;;;;;;26.53;13.44;101018.59;108142;1254;61895;-69
2023/05/07 11:15:11;;;;;;;8.30;2.20;;;;;;;26.82;13.68;101016.30;108128;1253;75950;-68
2023/05/07 11:17:55;;;;;;;7.20;2.50;;;;;;;26.75;13.30;101007.98;108149;1254;70328;-68
2023/05/07 11:20:45;;;;;;;11.60;3.30;;;;;;;26.76;13.59;100995.95;108261;1255;74843;-68